createdAt,value
2023-03-10T00:02:01.177Z,3.53
2023-03-10T00:04:34.170Z,3.37
2023-03-10T00:07:07.171Z,3.39
2023-03-10T00:09:39.976Z,3.58
2023-03-10T00:12:14.480Z,3.49
2023-03-10T00:14:47.292Z,3.64
2023-03-10T00:17:21.510Z,3.37
2023-03-10T00:19:54.567Z,3.68
2023-03-10T00:22:27.612Z,3.72
2023-03-10T00:25:00.588Z,3.70
2023-03-10T00:27:34.192Z,3.83
2023-03-10T00:30:08.654Z,3.80
2023-03-10T00:32:42.901Z,3.81
2023-03-10T00:35:15.805Z,3.63
2023-03-10T00:37:48.624Z,3.75
2023-03-10T00:40:22.151Z,3.82
2023-03-10T00:42:54.988Z,3.79
2023-03-10T00:45:27.795Z,3.71
2023-03-10T00:48:01.962Z,3.90
2023-03-10T00:50:34.792Z,3.91
2023-03-10T00:53:07.609Z,3.84
2023-03-10T00:55:40.936Z,4.04
2023-03-10T00:58:13.812Z,4.07
2023-03-10T01:00:46.690Z,4.13
2023-03-10T01:03:20.912Z,4.24
2023-03-10T01:05:54.324Z,4.21
2023-03-10T01:08:27.320Z,4.12
2023-03-10T01:11:00.139Z,4.39
2023-03-10T01:13:33.088Z,4.62
2023-03-10T01:16:06.610Z,4.67
2023-03-10T01:18:40.971Z,4.59
2023-03-10T01:21:18.023Z,5.02
2023-03-10T01:23:51.479Z,5.74
2023-03-10T01:26:24.359Z,6.60
2023-03-10T01:28:57.377Z,7.01
2023-03-10T01:31:30.220Z,7.55
2023-03-10T01:34:04.711Z,7.67
2023-03-10T01:36:37.532Z,7.99
2023-03-10T01:39:11.923Z,8.18
2023-03-10T01:41:46.602Z,8.31
2023-03-10T01:44:21.326Z,8.47
2023-03-10T01:46:59.221Z,8.16
2023-03-10T01:49:42.694Z,8.09
2023-03-10T01:52:18.894Z,7.91
2023-03-10T01:54:56.313Z,7.82
2023-03-10T01:57:33.898Z,7.82
2023-03-10T02:00:12.187Z,7.71
2023-03-10T02:02:55.719Z,7.61
2023-03-10T02:05:31.792Z,7.60
2023-03-10T02:08:06.028Z,7.51
2023-03-10T02:10:40.210Z,7.60
2023-03-10T02:13:13.153Z,7.56
2023-03-10T02:15:47.479Z,7.47
2023-03-10T02:18:23.429Z,7.49
2023-03-10T02:21:08.978Z,7.36
2023-03-10T02:24:00.326Z,7.34
2023-03-10T02:26:41.588Z,7.36
2023-03-10T02:29:21.422Z,7.30
2023-03-10T02:31:56.018Z,7.23
2023-03-10T02:34:29.674Z,7.31
2023-03-10T02:37:02.911Z,7.25
2023-03-10T02:39:35.805Z,7.27
2023-03-10T02:42:12.173Z,7.24
2023-03-10T02:44:48.828Z,7.28
2023-03-10T02:47:21.974Z,7.18
2023-03-10T02:49:54.770Z,7.19
2023-03-10T02:52:35.171Z,7.22
2023-03-10T02:55:08.740Z,7.23
2023-03-10T02:57:41.649Z,7.17
2023-03-10T03:00:17.135Z,7.19
2023-03-10T03:02:50.004Z,7.13
2023-03-10T03:05:22.951Z,7.23
2023-03-10T03:07:55.761Z,7.16
2023-03-10T03:10:28.963Z,7.16
2023-03-10T03:13:02.341Z,7.16
2023-03-10T03:15:36.927Z,7.10
2023-03-10T03:18:10.029Z,7.14
2023-03-10T03:20:44.020Z,7.11
2023-03-10T03:23:18.301Z,7.10
2023-03-10T03:25:51.220Z,6.88
2023-03-10T03:28:27.079Z,7.12
2023-03-10T03:31:02.100Z,7.12
2023-03-10T03:33:36.854Z,7.12
2023-03-10T03:36:09.908Z,7.12
2023-03-10T03:38:42.952Z,7.01
2023-03-10T03:41:15.981Z,7.05
2023-03-10T03:43:49.361Z,7.08
2023-03-10T03:46:23.983Z,6.87
2023-03-10T03:48:57.020Z,7.02
2023-03-10T03:51:30.397Z,7.20
2023-03-10T03:54:04.606Z,7.24
2023-03-10T03:56:42.523Z,7.33
2023-03-10T03:59:18.114Z,7.57
2023-03-10T04:01:52.476Z,7.62
2023-03-10T04:04:25.666Z,7.77
2023-03-10T04:06:58.972Z,7.95
2023-03-10T04:09:32.206Z,7.77
2023-03-10T04:12:06.334Z,7.86
2023-03-10T04:14:39.482Z,7.86
2023-03-10T04:17:13.663Z,7.88
2023-03-10T04:19:54.155Z,7.96
2023-03-10T04:22:30.488Z,8.00
2023-03-10T04:25:04.866Z,8.04
2023-03-10T04:27:38.013Z,8.14
2023-03-10T04:30:13.841Z,8.18
2023-03-10T04:32:51.732Z,8.21
2023-03-10T04:35:27.365Z,8.27
2023-03-10T04:38:00.320Z,8.31
2023-03-10T04:40:33.748Z,8.31
2023-03-10T04:43:07.159Z,8.29
2023-03-10T04:45:40.220Z,8.40
2023-03-10T04:48:14.803Z,8.47
2023-03-10T04:50:56.371Z,8.32
2023-03-10T04:53:32.350Z,8.44
2023-03-10T04:56:10.498Z,8.48
2023-03-10T04:58:44.827Z,8.47
2023-03-10T05:01:18.043Z,8.49
2023-03-10T05:03:56.759Z,8.46
2023-03-10T05:06:31.189Z,8.47
2023-03-10T05:09:13.549Z,8.43
2023-03-10T05:11:46.568Z,8.42
2023-03-10T05:14:19.543Z,8.38
2023-03-10T05:16:52.796Z,8.20
2023-03-10T05:19:28.623Z,8.38
2023-03-10T05:22:04.065Z,8.31
2023-03-10T05:24:39.702Z,8.36
2023-03-10T05:27:12.920Z,8.25
2023-03-10T05:29:48.900Z,8.14
2023-03-10T05:32:27.915Z,8.20
2023-03-10T05:35:02.727Z,8.16
2023-03-10T05:37:39.269Z,8.22
2023-03-10T05:40:16.010Z,8.21
2023-03-10T05:42:50.290Z,8.36
2023-03-10T05:45:24.864Z,8.30
2023-03-10T05:47:58.129Z,8.28
2023-03-10T05:50:32.365Z,8.21
2023-03-10T05:53:05.303Z,8.14
2023-03-10T05:55:38.532Z,8.30
2023-03-10T05:58:11.578Z,8.30
2023-03-10T06:00:45.441Z,8.32
2023-03-10T06:03:18.811Z,8.21
2023-03-10T06:05:53.048Z,8.40
2023-03-10T06:08:26.557Z,8.47
2023-03-10T06:10:59.417Z,8.44
2023-03-10T06:13:32.848Z,8.50
2023-03-10T06:16:07.323Z,8.48
2023-03-10T06:18:40.196Z,8.38
2023-03-10T06:21:15.816Z,8.34
2023-03-10T06:23:48.606Z,8.46
2023-03-10T06:26:22.664Z,8.43
2023-03-10T06:28:55.508Z,8.46
2023-03-10T06:31:28.357Z,8.43
2023-03-10T06:34:04.247Z,8.30
2023-03-10T06:36:40.236Z,8.37
2023-03-10T06:39:13.126Z,8.40
2023-03-10T06:41:45.915Z,8.46
2023-03-10T06:44:19.155Z,8.49
2023-03-10T06:46:52.004Z,8.48
2023-03-10T06:49:29.975Z,8.48
2023-03-10T06:52:04.314Z,8.50
2023-03-10T06:54:37.845Z,8.48
2023-03-10T06:57:10.724Z,8.42
2023-03-10T06:59:43.680Z,8.31
2023-03-10T07:02:16.545Z,8.33
2023-03-10T07:04:49.445Z,8.38
2023-03-10T07:07:23.852Z,8.44
2023-03-10T07:09:57.476Z,8.38
2023-03-10T07:12:30.632Z,8.39
2023-03-10T07:15:03.478Z,8.44
2023-03-10T07:17:36.521Z,8.46
2023-03-10T07:20:11.295Z,8.48
2023-03-10T07:22:45.824Z,8.53
2023-03-10T07:25:18.818Z,8.57
2023-03-10T07:27:51.610Z,8.63
2023-03-10T07:30:24.417Z,8.52
2023-03-10T07:32:57.498Z,8.64
2023-03-10T07:35:30.818Z,8.65
2023-03-10T07:38:05.965Z,8.65
2023-03-10T07:40:40.249Z,8.63
2023-03-10T07:43:13.073Z,8.81
2023-03-10T07:45:46.199Z,8.88
2023-03-10T07:48:19.109Z,8.68
2023-03-10T07:50:56.984Z,8.92
2023-03-10T07:53:31.506Z,8.81
2023-03-10T07:56:06.293Z,8.92
2023-03-10T07:58:39.900Z,8.92
2023-03-10T08:01:16.960Z,8.66
2023-03-10T08:03:50.399Z,7.46
2023-03-10T08:06:25.664Z,7.30
2023-03-10T08:09:00.133Z,7.13
2023-03-10T08:11:32.914Z,7.11
2023-03-10T08:14:05.823Z,7.00
2023-03-10T08:16:39.255Z,7.20
2023-03-10T08:19:12.311Z,7.18
2023-03-10T08:21:45.698Z,6.68
2023-03-10T08:24:19.886Z,6.55
2023-03-10T08:26:52.791Z,6.49
2023-03-10T08:29:25.870Z,6.58
2023-03-10T08:31:58.957Z,6.51
2023-03-10T08:34:33.423Z,6.49
2023-03-10T08:37:06.364Z,6.31
2023-03-10T08:39:40.737Z,6.11
2023-03-10T08:42:14.431Z,5.98
2023-03-10T08:44:47.389Z,6.24
2023-03-10T08:47:20.183Z,6.21
2023-03-10T08:49:52.990Z,6.20
2023-03-10T08:52:25.812Z,6.00
2023-03-10T08:55:00.110Z,5.88
2023-03-10T08:57:33.517Z,5.43
2023-03-10T09:00:09.194Z,5.83
2023-03-10T09:02:42.023Z,5.87
2023-03-10T09:05:14.892Z,6.12
2023-03-10T09:07:47.705Z,5.89
2023-03-10T09:10:22.554Z,5.84
2023-03-10T09:13:11.042Z,5.52
2023-03-10T09:15:46.013Z,5.54
2023-03-10T09:18:18.980Z,5.80
2023-03-10T09:20:54.977Z,5.62
2023-03-10T09:23:27.935Z,5.85
2023-03-10T09:26:02.142Z,5.85
2023-03-10T09:28:35.183Z,5.89
2023-03-10T09:31:09.778Z,5.54
2023-03-10T09:33:42.771Z,5.83
2023-03-10T09:36:16.373Z,5.57
2023-03-10T09:38:49.574Z,6.18
2023-03-10T09:41:44.914Z,6.23
2023-03-10T09:44:25.903Z,5.93
2023-03-10T09:47:23.443Z,6.20
2023-03-10T09:50:11.300Z,5.88
2023-03-10T09:52:47.294Z,5.66
2023-03-10T09:55:23.221Z,6.12
2023-03-10T09:57:58.901Z,6.09
2023-03-10T10:00:38.384Z,6.08
2023-03-10T10:03:18.312Z,5.84
2023-03-10T10:05:55.165Z,5.84
2023-03-10T10:08:31.233Z,6.11
2023-03-10T10:11:04.440Z,6.29
2023-03-10T10:13:43.159Z,6.37
2023-03-10T10:16:34.616Z,6.33
2023-03-10T10:19:15.600Z,6.59
2023-03-10T10:21:52.406Z,6.30
2023-03-10T10:24:25.392Z,6.39
2023-03-10T10:26:58.223Z,6.21
2023-03-10T10:29:36.341Z,6.12
2023-03-10T10:32:12.191Z,6.25
2023-03-10T10:34:47.207Z,6.21
2023-03-10T10:37:22.464Z,6.19
2023-03-10T10:39:59.730Z,6.48
2023-03-10T10:42:35.098Z,6.45
2023-03-10T10:45:28.042Z,6.50
2023-03-10T10:48:00.997Z,6.49
2023-03-10T10:50:35.566Z,6.57
2023-03-10T10:53:24.198Z,6.67
2023-03-10T10:56:02.537Z,6.79
2023-03-10T10:58:37.243Z,7.01
2023-03-10T11:01:13.676Z,7.39
2023-03-10T11:03:48.790Z,7.51
2023-03-10T11:06:27.078Z,7.67
2023-03-10T11:09:07.906Z,7.64
2023-03-10T11:11:51.036Z,7.84
2023-03-10T11:14:41.964Z,7.88
2023-03-10T11:17:23.012Z,8.04
2023-03-10T11:20:04.289Z,8.03
2023-03-10T11:22:43.026Z,8.25
2023-03-10T11:25:30.825Z,8.09
2023-03-10T11:28:19.211Z,7.67
2023-03-10T11:31:01.481Z,7.58
2023-03-10T11:33:44.594Z,7.37
2023-03-10T11:36:28.034Z,7.47
2023-03-10T11:39:09.782Z,7.93
2023-03-10T11:41:49.611Z,7.82
2023-03-10T11:44:29.933Z,8.04
2023-03-10T11:47:13.003Z,8.26
2023-03-10T11:49:53.180Z,8.37
2023-03-10T11:52:29.482Z,8.54
2023-03-10T11:55:05.647Z,8.84
2023-03-10T11:57:46.810Z,8.68
2023-03-10T12:00:25.197Z,8.81
2023-03-10T12:03:09.463Z,8.72
2023-03-10T12:05:52.364Z,8.93
2023-03-10T12:08:29.091Z,8.91
2023-03-10T12:11:05.226Z,8.50
2023-03-10T12:13:45.242Z,8.31
2023-03-10T12:16:21.915Z,8.44
2023-03-10T12:18:55.230Z,8.44
2023-03-10T12:21:30.932Z,8.64
2023-03-10T12:24:05.382Z,8.89
2023-03-10T12:27:02.611Z,8.79
2023-03-10T12:29:41.970Z,8.68
2023-03-10T12:32:41.950Z,8.78
2023-03-10T12:35:46.070Z,8.63
2023-03-10T12:38:30.173Z,8.66
2023-03-10T12:41:03.182Z,8.66
2023-03-10T12:43:55.436Z,8.67
2023-03-10T12:46:40.578Z,8.71
2023-03-10T12:49:24.356Z,8.53
2023-03-10T12:52:11.932Z,8.56
2023-03-10T12:55:03.820Z,8.60
2023-03-10T12:57:42.423Z,8.56
2023-03-10T13:00:26.395Z,8.43
2023-03-10T13:03:05.242Z,8.46
2023-03-10T13:05:42.025Z,8.44
2023-03-10T13:08:20.678Z,8.37
2023-03-10T13:10:56.810Z,8.59
2023-03-10T13:13:34.227Z,8.60
2023-03-10T13:16:09.055Z,8.60
2023-03-10T13:18:48.106Z,8.73
2023-03-10T13:21:26.725Z,8.42
2023-03-10T13:24:00.892Z,8.67
2023-03-10T13:26:35.417Z,8.79
2023-03-10T13:29:18.651Z,8.67
2023-03-10T13:31:55.812Z,8.79
2023-03-10T13:34:31.394Z,8.85
2023-03-10T13:37:06.435Z,8.85
2023-03-10T13:39:39.661Z,8.99
2023-03-10T13:42:28.453Z,8.85
2023-03-10T13:45:16.385Z,8.70
2023-03-10T13:47:49.520Z,8.44
2023-03-10T13:50:23.011Z,8.59
2023-03-10T13:52:59.569Z,8.67
2023-03-10T13:55:40.953Z,8.46
2023-03-10T13:58:15.427Z,8.28
2023-03-10T14:00:50.505Z,8.21
2023-03-10T14:03:23.572Z,8.33
2023-03-10T14:05:56.461Z,8.28
2023-03-10T14:08:32.330Z,8.27
2023-03-10T14:11:41.021Z,8.41
2023-03-10T14:14:27.602Z,8.55
2023-03-10T14:17:02.332Z,8.60
2023-03-10T14:19:51.275Z,8.44
2023-03-10T14:22:40.541Z,8.31
2023-03-10T14:25:16.278Z,8.39
2023-03-10T14:27:55.962Z,8.37
2023-03-10T14:30:31.968Z,8.30
2023-03-10T14:33:12.442Z,8.19
2023-03-10T14:35:46.478Z,8.28
2023-03-10T14:38:19.732Z,8.26
2023-03-10T14:40:55.493Z,8.11
2023-03-10T14:43:29.899Z,7.95
2023-03-10T14:46:05.756Z,7.95
2023-03-10T14:48:41.794Z,7.84
2023-03-10T14:51:29.012Z,7.92
2023-03-10T14:54:16.874Z,7.72
2023-03-10T14:56:53.668Z,7.86
2023-03-10T14:59:28.583Z,7.49
2023-03-10T15:02:07.479Z,7.54
2023-03-10T15:04:40.455Z,7.47
2023-03-10T15:07:15.111Z,7.52
2023-03-10T15:09:49.565Z,7.30
2023-03-10T15:12:25.490Z,7.15
2023-03-10T15:14:58.369Z,7.23
2023-03-10T15:17:32.545Z,7.02
2023-03-10T15:20:08.398Z,6.67
2023-03-10T15:22:41.243Z,6.95
2023-03-10T15:25:15.614Z,6.69
2023-03-10T15:27:50.185Z,6.63
2023-03-10T15:30:25.822Z,6.43
2023-03-10T15:33:00.491Z,6.55
2023-03-10T15:35:33.826Z,6.85
2023-03-10T15:38:06.700Z,6.83
2023-03-10T15:40:39.736Z,6.91
2023-03-10T15:43:12.817Z,6.61
2023-03-10T15:45:49.111Z,6.66
2023-03-10T15:48:23.418Z,6.61
2023-03-10T15:50:56.436Z,6.26
2023-03-10T15:53:29.257Z,6.33
2023-03-10T15:56:06.821Z,5.91
2023-03-10T15:58:39.758Z,5.91
2023-03-10T16:01:16.519Z,5.91
2023-03-10T16:03:50.733Z,6.02
2023-03-10T16:06:25.752Z,5.81
2023-03-10T16:08:58.633Z,5.47
2023-03-10T16:11:31.718Z,5.21
2023-03-10T16:14:07.541Z,5.16
2023-03-10T16:16:43.549Z,4.81
2023-03-10T16:19:17.833Z,4.68
2023-03-10T16:21:52.427Z,4.61
2023-03-10T16:24:27.472Z,4.60
2023-03-10T16:27:00.321Z,4.40
2023-03-10T16:29:33.123Z,3.98
2023-03-10T16:32:06.974Z,3.60
2023-03-10T16:34:41.094Z,3.55
2023-03-10T16:37:13.934Z,3.31
2023-03-10T16:39:46.786Z,2.96
2023-03-10T16:42:19.602Z,2.48
2023-03-10T16:44:55.448Z,2.10
2023-03-10T16:47:29.350Z,1.89
2023-03-10T16:50:03.578Z,1.99
2023-03-10T16:52:40.777Z,1.78
2023-03-10T16:55:17.184Z,1.73
2023-03-10T16:57:50.172Z,1.52
2023-03-10T17:00:26.389Z,1.56
2023-03-10T17:02:59.319Z,1.29
2023-03-10T17:05:33.983Z,1.13
2023-03-10T17:08:07.085Z,0.84
2023-03-10T17:10:39.944Z,0.68
2023-03-10T17:13:12.771Z,0.72
2023-03-10T17:15:45.663Z,0.75
2023-03-10T17:18:19.461Z,0.46
2023-03-10T17:20:53.712Z,0.48
2023-03-10T17:23:26.656Z,0.50
2023-03-10T17:25:59.995Z,0.45
2023-03-10T17:28:32.783Z,0.47
2023-03-10T17:31:09.335Z,0.38
2023-03-10T17:33:43.591Z,0.34
2023-03-10T17:36:18.126Z,0.49
2023-03-10T17:38:53.471Z,0.44
2023-03-10T17:41:27.414Z,0.37
2023-03-10T17:44:00.470Z,0.45
2023-03-10T17:46:33.647Z,0.42
2023-03-10T17:49:06.507Z,0.50
2023-03-10T17:51:43.512Z,0.41
2023-03-10T17:54:19.961Z,0.52
2023-03-10T17:56:52.998Z,0.34
2023-03-10T17:59:25.918Z,0.41
2023-03-10T18:01:58.737Z,0.36
2023-03-10T18:04:31.592Z,0.25
2023-03-10T18:07:05.747Z,-143.32
2023-03-10T18:09:39.159Z,-143.32
2023-03-10T18:13:11.556Z,-143.32
2023-03-10T18:15:50.662Z,-143.32
2023-03-10T18:18:23.584Z,-143.32
2023-03-10T18:20:56.439Z,-143.32
2023-03-10T18:23:30.734Z,-143.32
2023-03-10T18:26:06.763Z,-143.32
2023-03-10T18:28:40.431Z,-143.32
2023-03-10T18:31:19.432Z,-143.32
2023-03-10T18:33:52.985Z,-143.32
2023-03-10T18:36:26.510Z,-143.32
2023-03-10T18:39:03.466Z,-143.32
2023-03-10T18:41:39.200Z,-143.32
2023-03-10T18:44:12.043Z,-143.32
2023-03-10T18:46:46.475Z,-143.32
2023-03-10T18:49:19.444Z,-143.32
2023-03-10T18:51:52.303Z,-143.32
2023-03-10T18:54:26.590Z,-143.32
2023-03-10T18:57:01.591Z,-143.32
2023-03-10T18:59:34.254Z,-143.32
2023-03-10T19:02:11.190Z,-143.32
2023-03-10T19:04:47.610Z,-143.32
2023-03-10T19:07:21.280Z,-143.32
2023-03-10T19:09:55.649Z,-143.32
2023-03-10T19:12:28.696Z,-143.32
2023-03-10T19:15:06.653Z,-143.32
2023-03-10T19:17:41.738Z,-143.32
2023-03-10T19:20:18.394Z,-143.32
2023-03-10T19:22:52.246Z,-143.32
2023-03-10T19:25:26.477Z,-143.32
2023-03-10T19:27:59.268Z,-143.32
2023-03-10T19:30:32.661Z,-143.32
2023-03-10T19:33:05.471Z,-143.32
2023-03-10T19:35:38.372Z,-143.32
2023-03-10T19:38:13.408Z,-143.32
2023-03-10T19:40:48.023Z,-143.32
2023-03-10T19:43:21.218Z,-143.32
2023-03-10T19:46:00.863Z,-143.32
2023-03-10T19:48:33.949Z,-143.32
2023-03-10T19:51:20.693Z,-143.32
2023-03-10T19:54:52.434Z,-143.32
2023-03-10T19:58:25.355Z,-143.32
2023-03-10T20:02:01.487Z,-143.32
2023-03-10T20:05:33.004Z,-143.32
2023-03-10T20:09:08.979Z,-143.32
2023-03-10T20:12:42.658Z,-143.32
2023-03-10T20:16:15.681Z,-143.32
2023-03-10T20:19:47.302Z,-143.32
2023-03-10T20:23:20.214Z,-143.32
2023-03-10T20:27:02.990Z,-143.32
2023-03-10T20:30:37.373Z,-143.32
2023-03-10T20:34:08.166Z,-143.32
2023-03-10T20:37:41.679Z,-143.32
2023-03-10T20:41:16.204Z,-143.32
2023-03-10T20:44:49.381Z,-143.32
2023-03-10T20:48:22.143Z,-143.32
2023-03-10T20:51:53.848Z,-143.32
2023-03-10T20:55:26.356Z,-143.32
2023-03-10T20:59:01.576Z,-143.32
2023-03-10T21:02:34.241Z,-143.32
2023-03-10T21:06:06.427Z,-143.32
2023-03-10T21:09:37.863Z,-143.32
2023-03-10T21:13:05.132Z,-143.32
2023-03-10T21:16:33.609Z,-143.32
2023-03-10T21:20:07.852Z,-143.32
2023-03-10T21:22:44.931Z,-143.32
2023-03-10T21:25:21.969Z,-143.32
2023-03-10T21:27:58.849Z,-143.32
2023-03-10T21:30:34.092Z,-143.32
2023-03-10T21:33:10.249Z,-143.32
2023-03-10T21:35:44.409Z,-143.32
2023-03-10T21:38:20.196Z,-143.32
2023-03-10T21:40:53.765Z,-143.32
2023-03-10T21:43:27.805Z,-143.32
2023-03-10T21:46:03.151Z,-143.32
2023-03-10T21:48:36.177Z,-143.32
2023-03-10T21:51:16.760Z,-143.32
2023-03-10T21:53:53.593Z,-143.32
2023-03-10T21:56:28.872Z,-143.32
2023-03-10T21:59:01.937Z,-143.32
2023-03-10T22:01:35.664Z,-143.32
2023-03-10T22:04:10.644Z,-143.32
2023-03-10T22:06:44.854Z,-143.32
2023-03-10T22:09:18.094Z,-143.32
2023-03-10T22:11:55.420Z,-143.32
2023-03-10T22:14:34.488Z,-143.32
2023-03-10T22:17:08.112Z,-143.32
2023-03-10T22:19:45.412Z,-143.32
2023-03-10T22:22:19.861Z,-143.32
2023-03-10T22:24:53.669Z,-143.32
2023-03-10T22:27:26.976Z,-143.32
2023-03-10T22:30:00.096Z,-143.32
2023-03-10T22:32:34.081Z,-143.32
2023-03-10T22:35:09.912Z,-143.32
2023-03-10T22:37:44.700Z,-143.32
2023-03-10T22:40:19.764Z,-143.32
2023-03-10T22:42:55.701Z,-143.32
2023-03-10T22:45:31.019Z,-143.32
2023-03-10T22:48:06.819Z,-143.32
2023-03-10T22:50:43.481Z,-143.32
2023-03-10T22:53:20.936Z,-143.32
2023-03-10T22:55:53.742Z,-143.32
2023-03-10T22:58:26.577Z,-143.32
2023-03-10T23:01:00.741Z,-143.32
2023-03-10T23:03:34.615Z,-143.32
2023-03-10T23:06:08.551Z,-143.32
2023-03-10T23:08:46.384Z,-143.32
2023-03-10T23:11:19.489Z,-143.32
2023-03-10T23:13:52.474Z,-143.32
2023-03-10T23:16:25.317Z,-143.32
2023-03-10T23:19:00.261Z,-143.32
2023-03-10T23:21:32.920Z,-143.32
2023-03-10T23:24:07.987Z,-143.32
2023-03-10T23:26:41.010Z,-143.32
2023-03-10T23:29:14.902Z,-143.32
2023-03-10T23:31:48.070Z,-143.32
2023-03-10T23:34:21.098Z,-143.32
2023-03-10T23:36:55.972Z,-143.32
2023-03-10T23:39:30.085Z,-143.32
2023-03-10T23:42:04.066Z,-143.32
2023-03-10T23:44:37.667Z,-143.32
2023-03-10T23:47:10.474Z,-143.32
2023-03-10T23:49:43.715Z,-143.32
2023-03-10T23:52:16.611Z,-143.32
2023-03-10T23:54:50.809Z,-143.32
2023-03-10T23:57:23.743Z,-143.32
2023-03-10T23:59:56.750Z,-143.32
